Time;durP1;ratioP1;P1;durP2;ratioP2;P2;SDS_P1;SDS_P2;PMS_P1;PMS_P2;Temp;Humidity;BMP_temperature;BMP_pressure;BME280_temperature;BME280_humidity;BME280_pressure;Samples;Min_cycle;Max_cycle;Signal;HPM_P1;HPM_P2
2023/06/22 00:01:47;;;;;;;5.38;4.30;;;22.70;99.90;;;;;;5049254;28;20033;-61
2023/06/22 00:04:13;;;;;;;7.78;4.65;;;22.80;99.90;;;;;;5039519;28;20044;-61
2023/06/22 00:06:38;;;;;;;5.72;4.88;;;22.80;99.90;;;;;;5038199;28;20048;-58
2023/06/22 00:09:04;;;;;;;9.23;4.63;;;22.90;99.90;;;;;;5037440;28;20033;-58
2023/06/22 00:11:32;;;;;;;7.03;4.82;;;22.90;99.90;;;;;;5048717;28;20112;-60
2023/06/22 00:13:58;;;;;;;7.53;4.53;;;22.90;99.90;;;;;;5041910;28;20021;-60
2023/06/22 00:16:23;;;;;;;7.75;4.47;;;23.00;99.90;;;;;;5044074;28;20491;-61
2023/06/22 00:18:49;;;;;;;5.75;4.05;;;22.90;99.90;;;;;;5047495;28;20033;-61
2023/06/22 00:21:14;;;;;;;6.85;4.50;;;22.90;99.90;;;;;;5044356;28;20047;-60
2023/06/22 00:23:41;;;;;;;6.63;4.57;;;22.80;99.90;;;;;;5041775;28;20052;-61
2023/06/22 00:26:07;;;;;;;7.55;4.60;;;22.80;99.90;;;;;;5042931;28;20091;-59
2023/06/22 00:28:32;;;;;;;10.85;4.88;;;22.80;99.90;;;;;;5040805;28;20368;-56
2023/06/22 00:30:58;;;;;;;6.85;4.03;;;22.90;99.90;;;;;;5043513;28;20032;-59
2023/06/22 00:33:23;;;;;;;7.30;4.38;;;22.90;99.90;;;;;;5042523;28;20037;-60
2023/06/22 00:35:52;;;;;;;8.27;4.22;;;22.80;99.90;;;;;;5045151;28;20025;-58
2023/06/22 00:38:18;;;;;;;7.07;4.18;;;22.80;99.90;;;;;;5040854;28;20025;-57
2023/06/22 00:40:43;;;;;;;6.03;4.63;;;22.80;99.90;;;;;;5036004;28;20036;-58
2023/06/22 00:43:09;;;;;;;8.30;4.53;;;22.80;99.90;;;;;;5038230;28;20031;-58
2023/06/22 00:45:35;;;;;;;8.30;4.15;;;22.80;99.90;;;;;;5042377;28;20036;-57
2023/06/22 00:48:01;;;;;;;7.63;3.90;;;22.70;99.90;;;;;;5038052;28;20057;-57
2023/06/22 00:50:33;;;;;;;5.82;4.38;;;22.70;99.90;;;;;;5041306;28;20022;-59
2023/06/22 00:53:03;;;;;;;7.70;4.57;;;22.70;99.90;;;;;;5042471;28;20029;-56
2023/06/22 00:55:29;;;;;;;8.43;4.50;;;22.70;99.90;;;;;;5042173;28;20059;-55
2023/06/22 00:57:55;;;;;;;6.57;4.22;;;22.60;99.90;;;;;;5040564;28;20033;-57
2023/06/22 01:00:25;;;;;;;5.88;4.68;;;22.60;99.90;;;;;;5039114;28;20399;-58
2023/06/22 01:02:53;;;;;;;5.13;3.88;;;22.60;99.90;;;;;;5043269;28;20033;-59
2023/06/22 01:05:20;;;;;;;6.25;4.20;;;22.60;99.90;;;;;;5042182;28;20026;-54
2023/06/22 01:08:08;;;;;;;5.90;4.40;;;22.60;99.90;;;;;;5041551;28;20067;-54
2023/06/22 01:10:51;;;;;;;7.05;4.55;;;22.60;99.90;;;;;;5042414;28;20491;-53
2023/06/22 01:13:32;;;;;;;11.27;5.40;;;22.50;99.90;;;;;;5039297;28;20024;-60
2023/06/22 01:16:07;;;;;;;9.07;4.93;;;22.50;99.90;;;;;;5045325;28;20376;-55
2023/06/22 01:18:36;;;;;;;8.40;4.50;;;22.50;99.90;;;;;;5039930;28;20029;-57
2023/06/22 01:21:08;;;;;;;6.35;4.65;;;22.50;99.90;;;;;;5041688;28;20013;-59
2023/06/22 01:23:45;;;;;;;7.63;4.22;;;22.40;99.90;;;;;;5044546;28;20139;-58
2023/06/22 01:26:34;;;;;;;6.57;4.10;;;22.50;99.90;;;;;;5039512;28;20022;-59
2023/06/22 01:29:00;;;;;;;10.13;4.88;;;22.40;99.90;;;;;;5044401;28;20388;-56
2023/06/22 01:31:29;;;;;;;8.45;5.20;;;22.40;99.90;;;;;;5043964;28;20498;-58
2023/06/22 01:33:58;;;;;;;7.72;4.43;;;22.30;99.90;;;;;;5037929;28;20083;-58
2023/06/22 01:36:25;;;;;;;5.55;4.18;;;22.40;99.90;;;;;;5042217;28;20017;-57
2023/06/22 01:38:52;;;;;;;6.60;4.35;;;22.30;99.90;;;;;;5038945;28;20083;-58
2023/06/22 01:41:18;;;;;;;6.47;4.50;;;22.30;99.90;;;;;;5039410;28;20083;-54
2023/06/22 01:43:45;;;;;;;7.35;4.38;;;22.30;99.90;;;;;;5036677;28;20090;-53
2023/06/22 01:46:12;;;;;;;7.53;4.72;;;22.30;99.90;;;;;;5043513;28;20024;-56
2023/06/22 01:48:39;;;;;;;7.90;4.53;;;22.30;99.90;;;;;;5037230;28;20033;-56
2023/06/22 01:51:04;;;;;;;6.43;4.35;;;22.30;99.90;;;;;;5038050;28;20063;-57
2023/06/22 01:53:30;;;;;;;5.70;4.10;;;22.30;99.90;;;;;;5036275;28;20057;-55
2023/06/22 01:55:57;;;;;;;6.45;4.43;;;22.30;99.90;;;;;;5041171;28;20438;-58
2023/06/22 01:58:26;;;;;;;11.05;4.70;;;22.20;99.90;;;;;;5040692;28;20021;-52
2023/06/22 02:01:03;;;;;;;8.13;4.70;;;22.20;99.90;;;;;;5037542;28;20025;-60
2023/06/22 02:03:37;;;;;;;8.23;4.85;;;22.20;99.90;;;;;;5043776;28;20086;-58
2023/06/22 02:06:08;;;;;;;8.50;4.63;;;22.20;99.90;;;;;;5039746;28;20435;-58
2023/06/22 02:08:50;;;;;;;6.28;4.55;;;22.20;99.90;;;;;;5044605;28;20040;-57
2023/06/22 02:11:18;;;;;;;11.90;5.28;;;22.00;99.90;;;;;;5045609;28;20025;-60
2023/06/22 02:13:44;;;;;;;7.10;4.53;;;21.90;99.90;;;;;;5040841;28;20029;-63
2023/06/22 02:16:11;;;;;;;7.35;5.10;;;21.80;99.90;;;;;;5036893;28;20384;-56
2023/06/22 02:18:37;;;;;;;6.90;5.05;;;21.80;99.90;;;;;;5040927;28;20103;-60
2023/06/22 02:21:03;;;;;;;6.93;5.22;;;21.80;99.90;;;;;;5041021;28;20025;-61
2023/06/22 02:23:28;;;;;;;9.38;5.32;;;21.60;99.90;;;;;;5036412;28;20407;-55
2023/06/22 02:25:54;;;;;;;9.30;4.60;;;21.50;99.90;;;;;;5035891;28;20060;-60
2023/06/22 02:28:20;;;;;;;6.80;4.95;;;21.50;99.90;;;;;;5039555;28;20082;-56
2023/06/22 02:30:45;;;;;;;6.15;5.07;;;21.40;99.90;;;;;;5043653;28;20025;-61
2023/06/22 02:33:11;;;;;;;6.22;4.78;;;21.30;99.90;;;;;;5041366;28;20040;-58
2023/06/22 02:35:37;;;;;;;8.40;5.07;;;21.20;99.90;;;;;;5044086;28;20025;-61
2023/06/22 02:38:04;;;;;;;8.85;6.20;;;21.20;99.90;;;;;;5044299;28;20108;-58
2023/06/22 02:40:30;;;;;;;6.97;4.95;;;21.10;99.90;;;;;;5039946;28;20067;-59
2023/06/22 02:42:58;;;;;;;14.40;5.13;;;21.20;99.90;;;;;;5045993;28;20017;-59
2023/06/22 02:45:23;;;;;;;6.10;4.32;;;21.00;99.90;;;;;;5045915;28;20017;-60
2023/06/22 02:47:49;;;;;;;7.95;4.70;;;21.00;99.90;;;;;;5046461;28;20040;-59
2023/06/22 02:50:15;;;;;;;6.60;4.90;;;21.00;99.90;;;;;;5042593;28;20056;-60
2023/06/22 02:52:40;;;;;;;8.23;5.35;;;20.90;99.90;;;;;;5045445;28;20048;-58
2023/06/22 02:55:08;;;;;;;6.95;5.25;;;20.80;99.90;;;;;;5040980;28;20171;-56
2023/06/22 02:57:33;;;;;;;8.00;5.60;;;20.80;99.90;;;;;;5044221;28;20044;-59
2023/06/22 02:59:59;;;;;;;7.32;5.28;;;20.70;99.90;;;;;;5036936;28;20029;-57
2023/06/22 03:02:26;;;;;;;10.63;5.43;;;20.70;99.90;;;;;;5042374;28;20064;-55
2023/06/22 03:04:53;;;;;;;7.90;5.55;;;20.70;99.90;;;;;;5043308;28;20100;-59
2023/06/22 03:07:19;;;;;;;5.95;4.68;;;20.70;99.90;;;;;;5045351;28;20620;-62
2023/06/22 03:09:45;;;;;;;7.55;5.18;;;20.60;99.90;;;;;;5039211;28;20030;-57
2023/06/22 03:12:10;;;;;;;8.52;5.15;;;20.60;99.90;;;;;;5042882;28;20028;-58
2023/06/22 03:14:36;;;;;;;7.50;5.53;;;20.50;99.90;;;;;;5045200;28;20028;-58
2023/06/22 03:17:03;;;;;;;9.93;5.63;;;20.50;99.90;;;;;;5039415;28;20040;-56
2023/06/22 03:19:31;;;;;;;11.93;6.40;;;20.50;99.90;;;;;;5043816;28;20025;-59
2023/06/22 03:21:57;;;;;;;7.68;5.28;;;20.50;99.90;;;;;;5040069;28;20138;-56
2023/06/22 03:24:23;;;;;;;9.52;5.30;;;20.50;99.90;;;;;;5039023;28;20514;-55
2023/06/22 03:26:48;;;;;;;7.40;5.47;;;20.50;99.90;;;;;;5036911;28;20045;-59
2023/06/22 03:29:15;;;;;;;9.75;5.47;;;20.50;99.90;;;;;;5038106;28;20423;-59
2023/06/22 03:31:41;;;;;;;7.68;5.00;;;20.50;99.90;;;;;;5042220;28;20025;-60
2023/06/22 03:34:06;;;;;;;6.55;4.72;;;20.50;99.90;;;;;;5052368;28;20408;-57
2023/06/22 03:36:32;;;;;;;9.15;4.70;;;20.50;99.90;;;;;;5045262;28;20029;-58
2023/06/22 03:38:57;;;;;;;7.55;5.05;;;20.60;99.90;;;;;;5035143;28;20052;-55
2023/06/22 03:41:23;;;;;;;7.60;5.07;;;20.60;99.90;;;;;;5045596;28;20498;-54
2023/06/22 03:43:48;;;;;;;8.50;4.57;;;20.60;99.90;;;;;;5039310;28;20053;-57
2023/06/22 03:46:15;;;;;;;7.38;4.32;;;20.60;99.90;;;;;;5042205;28;20059;-58
2023/06/22 03:48:40;;;;;;;6.78;4.43;;;20.60;99.90;;;;;;5037517;28;20029;-60
2023/06/22 03:51:06;;;;;;;10.00;5.53;;;20.60;99.90;;;;;;5037290;28;20511;-52
2023/06/22 03:53:31;;;;;;;11.55;6.25;;;20.50;99.90;;;;;;5036643;28;20087;-58
2023/06/22 03:55:57;;;;;;;6.50;5.00;;;20.50;99.90;;;;;;5040250;28;20096;-56
2023/06/22 03:58:23;;;;;;;8.95;5.35;;;20.40;99.90;;;;;;5033608;28;20101;-57
2023/06/22 04:00:49;;;;;;;8.10;5.15;;;20.40;99.90;;;;;;5049088;28;20429;-59
2023/06/22 04:03:15;;;;;;;8.20;5.20;;;20.40;99.90;;;;;;5049186;28;20025;-57
2023/06/22 04:05:41;;;;;;;6.88;5.28;;;20.50;99.90;;;;;;5052880;28;20027;-58
2023/06/22 04:08:07;;;;;;;12.25;5.45;;;20.40;99.90;;;;;;5052850;28;20056;-58
2023/06/22 04:10:32;;;;;;;9.35;5.72;;;20.40;99.90;;;;;;5052832;28;20082;-59
2023/06/22 04:12:58;;;;;;;10.52;5.40;;;20.40;99.90;;;;;;5051158;28;20108;-58
2023/06/22 04:15:24;;;;;;;7.28;4.72;;;20.40;99.90;;;;;;5052696;28;20025;-60
2023/06/22 04:17:49;;;;;;;13.20;5.70;;;20.40;99.90;;;;;;5052958;28;20017;-61
2023/06/22 04:20:15;;;;;;;8.32;5.10;;;20.50;99.90;;;;;;5052964;28;20459;-56
2023/06/22 04:22:40;;;;;;;8.30;5.22;;;20.60;99.90;;;;;;5050937;28;20081;-59
2023/06/22 04:25:09;;;;;;;9.25;5.00;;;20.60;99.90;;;;;;5052644;28;20029;-59
2023/06/22 04:27:40;;;;;;;7.53;5.05;;;20.70;99.90;;;;;;5050132;28;20029;-59
2023/06/22 04:30:06;;;;;;;6.68;4.97;;;20.70;99.90;;;;;;5052637;28;20048;-58
2023/06/22 04:32:32;;;;;;;8.23;5.15;;;20.70;99.90;;;;;;5052192;28;20368;-59
2023/06/22 04:35:00;;;;;;;7.50;5.68;;;20.80;99.90;;;;;;5050940;28;20075;-60
2023/06/22 04:37:26;;;;;;;8.27;5.80;;;20.80;99.90;;;;;;5052202;28;20071;-60
2023/06/22 04:39:51;;;;;;;9.85;5.35;;;20.80;99.90;;;;;;5052229;28;20021;-58
2023/06/22 04:42:17;;;;;;;8.20;5.72;;;20.80;99.90;;;;;;5050683;28;20048;-58
2023/06/22 04:44:42;;;;;;;10.70;6.13;;;20.80;99.90;;;;;;5052112;28;20033;-58
2023/06/22 04:47:08;;;;;;;12.48;6.30;;;20.70;99.90;;;;;;5050470;28;20466;-60
2023/06/22 04:49:37;;;;;;;17.02;6.10;;;20.70;99.90;;;;;;5052004;28;20020;-58
2023/06/22 04:52:05;;;;;;;8.55;6.35;;;20.70;99.90;;;;;;5052047;28;20478;-54
2023/06/22 04:54:32;;;;;;;11.00;6.63;;;20.60;99.90;;;;;;5051861;28;20025;-61
2023/06/22 04:56:59;;;;;;;9.00;7.20;;;20.60;99.90;;;;;;5051710;28;20074;-61
2023/06/22 04:59:29;;;;;;;8.82;6.82;;;20.60;99.90;;;;;;5051798;28;20017;-59
2023/06/22 05:01:59;;;;;;;10.35;5.88;;;20.50;99.90;;;;;;5050300;28;20032;-57
2023/06/22 05:04:27;;;;;;;14.63;6.70;;;20.60;99.90;;;;;;5051636;28;20033;-60
2023/06/22 05:06:53;;;;;;;10.35;6.28;;;20.60;99.90;;;;;;5052202;28;20025;-60
2023/06/22 05:09:19;;;;;;;9.07;6.80;;;20.70;99.90;;;;;;5052026;28;20536;-61
2023/06/22 05:11:45;;;;;;;14.70;6.93;;;20.80;99.90;;;;;;5051751;28;20463;-60
2023/06/22 05:14:10;;;;;;;12.07;6.93;;;20.90;99.90;;;;;;5050402;28;20021;-58
2023/06/22 05:16:36;;;;;;;9.90;7.10;;;21.00;99.90;;;;;;5050842;28;20533;-61
2023/06/22 05:19:05;;;;;;;10.65;7.22;;;21.20;99.90;;;;;;5051513;28;20013;-58
2023/06/22 05:21:31;;;;;;;11.55;7.72;;;21.30;99.90;;;;;;5051525;28;20017;-60
2023/06/22 05:24:00;;;;;;;9.00;7.13;;;21.40;99.90;;;;;;5051654;28;20025;-58
2023/06/22 05:26:26;;;;;;;11.90;8.02;;;21.50;99.90;;;;;;5051307;28;20020;-60
2023/06/22 05:28:53;;;;;;;10.45;7.65;;;21.60;99.90;;;;;;5049915;28;20056;-60
2023/06/22 05:31:22;;;;;;;10.80;8.13;;;21.60;99.90;;;;;;5051580;28;20020;-60
2023/06/22 05:33:49;;;;;;;12.63;8.48;;;21.60;99.90;;;;;;5050989;28;20043;-60
2023/06/22 05:36:15;;;;;;;15.07;8.73;;;21.70;99.90;;;;;;5048236;28;20028;-60
2023/06/22 05:38:41;;;;;;;12.02;8.77;;;21.70;99.90;;;;;;5051125;28;20021;-61
2023/06/22 05:41:07;;;;;;;10.48;8.48;;;21.80;99.90;;;;;;5051222;28;20128;-60
2023/06/22 05:43:33;;;;;;;12.43;8.93;;;21.90;99.90;;;;;;5046438;28;20021;-56
2023/06/22 05:46:00;;;;;;;20.42;9.18;;;21.90;99.90;;;;;;5050906;28;20502;-58
2023/06/22 05:48:26;;;;;;;10.75;8.38;;;22.00;99.90;;;;;;5051135;28;20017;-56
2023/06/22 05:50:52;;;;;;;12.20;7.97;;;22.10;99.90;;;;;;5051266;28;20044;-53
2023/06/22 05:53:17;;;;;;;10.25;8.18;;;22.20;99.90;;;;;;5051051;28;20074;-51
2023/06/22 05:55:43;;;;;;;12.30;9.25;;;22.30;99.90;;;;;;5049161;28;20041;-58
2023/06/22 05:58:09;;;;;;;18.15;9.27;;;22.40;99.90;;;;;;5051373;28;20125;-56
2023/06/22 06:00:35;;;;;;;15.88;8.55;;;22.50;99.90;;;;;;5050842;28;20046;-59
2023/06/22 06:03:03;;;;;;;10.77;8.20;;;22.50;99.90;;;;;;5050907;28;20028;-57
2023/06/22 06:05:33;;;;;;;15.05;9.40;;;22.50;99.90;;;;;;5050815;28;20009;-58
2023/06/22 06:08:04;;;;;;;12.93;9.43;;;22.50;99.90;;;;;;5050909;28;20025;-59
2023/06/22 06:10:30;;;;;;;15.23;8.75;;;22.40;99.90;;;;;;5048552;28;20017;-57
2023/06/22 06:12:56;;;;;;;13.18;9.75;;;22.40;99.90;;;;;;5050745;28;20025;-58
2023/06/22 06:15:22;;;;;;;12.82;9.05;;;22.40;99.90;;;;;;5048724;28;20020;-53
2023/06/22 06:17:50;;;;;;;10.82;8.82;;;22.40;99.90;;;;;;5050738;28;20032;-53
2023/06/22 06:20:19;;;;;;;13.38;8.90;;;22.50;99.90;;;;;;5050780;28;20493;-58
2023/06/22 06:22:44;;;;;;;14.93;10.23;;;22.60;99.90;;;;;;5050522;28;20032;-59
2023/06/22 06:25:15;;;;;;;15.95;10.10;;;22.70;99.90;;;;;;5048952;28;20478;-54
2023/06/22 06:27:42;;;;;;;14.98;9.45;;;22.80;99.90;;;;;;5050252;28;20418;-61
2023/06/22 06:30:08;;;;;;;11.02;8.27;;;22.90;99.90;;;;;;5050697;28;20028;-52
2023/06/22 06:32:33;;;;;;;14.43;9.68;;;23.00;99.90;;;;;;5050456;28;20024;-56
2023/06/22 06:34:59;;;;;;;18.02;9.23;;;23.00;99.90;;;;;;5050485;28;20051;-58
2023/06/22 06:37:24;;;;;;;12.32;8.70;;;23.10;99.90;;;;;;5050409;28;20582;-55
2023/06/22 06:39:50;;;;;;;14.43;9.18;;;23.30;99.90;;;;;;5049001;28;20052;-57
2023/06/22 06:42:15;;;;;;;12.40;9.10;;;23.30;99.90;;;;;;5050299;28;20036;-58
2023/06/22 06:44:41;;;;;;;15.43;9.93;;;23.40;99.90;;;;;;5050193;28;20029;-56
2023/06/22 06:47:07;;;;;;;11.50;8.15;;;23.50;99.90;;;;;;5048606;28;20621;-56
2023/06/22 06:49:33;;;;;;;12.90;9.40;;;23.60;99.90;;;;;;5050226;28;20025;-55
2023/06/22 06:51:59;;;;;;;16.95;8.77;;;23.50;99.90;;;;;;5050366;28;20025;-58
2023/06/22 06:54:24;;;;;;;10.77;8.35;;;23.60;99.90;;;;;;5050078;28;20025;-56
2023/06/22 06:56:50;;;;;;;13.32;9.00;;;23.60;99.90;;;;;;5050170;28;20368;-55
2023/06/22 06:59:15;;;;;;;10.88;8.25;;;23.50;99.90;;;;;;5050253;28;20017;-56
2023/06/22 07:01:41;;;;;;;11.93;8.10;;;23.50;99.90;;;;;;5048507;28;20479;-55
2023/06/22 07:04:07;;;;;;;9.68;7.03;;;23.50;99.90;;;;;;5050313;28;20100;-59
2023/06/22 07:06:33;;;;;;;10.68;7.07;;;23.60;99.90;;;;;;5050046;28;20562;-56
2023/06/22 07:08:59;;;;;;;12.50;8.18;;;23.70;99.90;;;;;;5050461;28;20017;-52
2023/06/22 07:11:25;;;;;;;9.90;6.57;;;23.90;99.90;;;;;;5050373;28;20028;-51
2023/06/22 07:13:50;;;;;;;10.50;8.38;;;24.00;99.90;;;;;;5050081;28;20033;-57
2023/06/22 07:16:16;;;;;;;11.82;8.45;;;24.00;99.90;;;;;;5045005;28;20021;-56
2023/06/22 07:18:42;;;;;;;16.58;9.10;;;24.10;99.90;;;;;;5049851;28;20035;-60
2023/06/22 07:21:07;;;;;;;16.83;8.70;;;24.00;99.90;;;;;;5051267;28;20094;-54
2023/06/22 07:23:33;;;;;;;14.07;8.60;;;24.00;99.90;;;;;;5053742;28;20410;-57
2023/06/22 07:26:01;;;;;;;12.50;8.88;;;23.80;99.90;;;;;;5053417;28;20025;-59
2023/06/22 07:28:27;;;;;;;11.75;8.55;;;23.80;99.90;;;;;;5053603;28;20032;-56
2023/06/22 07:30:53;;;;;;;10.60;7.93;;;23.90;99.90;;;;;;5052007;28;20356;-59
2023/06/22 07:33:19;;;;;;;21.55;9.57;;;23.90;99.90;;;;;;5052143;28;20024;-56
2023/06/22 07:35:45;;;;;;;13.25;8.52;;;23.90;99.90;;;;;;5053250;28;20391;-59
2023/06/22 07:38:10;;;;;;;11.25;8.00;;;24.00;99.90;;;;;;5053902;28;20021;-58
2023/06/22 07:40:36;;;;;;;12.52;8.32;;;24.10;99.90;;;;;;5053307;28;20025;-58
2023/06/22 07:43:03;;;;;;;10.05;7.15;;;24.10;99.90;;;;;;5053437;28;20017;-59
2023/06/22 07:45:29;;;;;;;11.98;8.32;;;24.10;99.90;;;;;;5053044;28;20390;-52
2023/06/22 07:47:54;;;;;;;10.90;8.60;;;24.30;99.90;;;;;;5043873;28;20498;-56
2023/06/22 07:50:20;;;;;;;16.02;8.48;;;24.40;99.90;;;;;;5053255;28;20024;-57
2023/06/22 07:52:47;;;;;;;19.67;8.50;;;24.50;99.90;;;;;;5053060;28;20009;-56
2023/06/22 07:55:12;;;;;;;10.10;8.02;;;24.60;99.90;;;;;;5052886;28;20039;-58
2023/06/22 07:57:38;;;;;;;10.73;7.90;;;24.60;99.90;;;;;;5052620;28;20399;-59
2023/06/22 08:00:14;;;;;;;14.50;8.68;;;24.50;99.90;;;;;;5051597;28;20017;-58
2023/06/22 08:02:40;;;;;;;19.42;9.32;;;24.50;99.90;;;;;;5051139;28;20524;-59
2023/06/22 08:05:08;;;;;;;10.73;7.95;;;24.50;99.90;;;;;;5053022;28;20032;-60
2023/06/22 08:07:35;;;;;;;22.92;10.45;;;24.50;99.90;;;;;;5052722;28;20096;-58
2023/06/22 08:10:00;;;;;;;22.88;9.38;;;24.60;99.90;;;;;;5053031;28;20151;-57
2023/06/22 08:12:26;;;;;;;14.85;9.93;;;24.60;99.90;;;;;;5049553;28;20049;-58
2023/06/22 08:14:51;;;;;;;20.45;8.57;;;24.70;99.90;;;;;;5052741;28;20024;-56
2023/06/22 08:17:17;;;;;;;13.00;7.88;;;24.80;99.90;;;;;;5053001;28;20170;-60
2023/06/22 08:19:42;;;;;;;9.80;7.47;;;24.80;99.90;;;;;;5050866;28;20029;-60
2023/06/22 08:22:08;;;;;;;14.25;7.50;;;24.90;99.90;;;;;;5052516;28;20017;-57
2023/06/22 08:24:34;;;;;;;13.45;8.32;;;25.00;99.90;;;;;;5052425;28;20020;-58
2023/06/22 08:26:59;;;;;;;12.77;8.57;;;25.10;99.90;;;;;;5052583;28;20028;-60
2023/06/22 08:29:25;;;;;;;10.15;8.25;;;25.20;99.90;;;;;;5050758;28;20021;-55
2023/06/22 08:31:50;;;;;;;10.50;7.22;;;25.30;99.90;;;;;;5052079;28;20024;-59
2023/06/22 08:34:17;;;;;;;11.80;8.07;;;25.30;99.90;;;;;;5052249;28;20021;-58
2023/06/22 08:36:51;;;;;;;12.73;8.38;;;25.40;99.90;;;;;;5052189;28;20017;-55
2023/06/22 08:39:17;;;;;;;9.90;6.93;;;25.50;99.90;;;;;;5052297;28;20112;-55
2023/06/22 08:41:42;;;;;;;13.20;8.02;;;25.60;99.90;;;;;;5052134;28;20295;-60
2023/06/22 08:44:08;;;;;;;15.32;9.18;;;25.80;99.90;;;;;;5048706;28;20047;-60
2023/06/22 08:46:33;;;;;;;12.48;7.55;;;25.90;99.90;;;;;;5050089;28;20020;-57
2023/06/22 08:48:59;;;;;;;12.85;7.50;;;26.00;99.90;;;;;;5050713;28;20031;-59
2023/06/22 08:51:25;;;;;;;13.25;8.75;;;26.00;99.90;;;;;;5051905;28;20020;-60
2023/06/22 08:53:50;;;;;;;12.57;8.40;;;26.10;99.90;;;;;;5051950;28;20024;-58
2023/06/22 08:56:16;;;;;;;12.13;8.65;;;26.20;99.90;;;;;;5051841;28;20021;-58
2023/06/22 08:58:41;;;;;;;16.08;8.25;;;26.20;99.90;;;;;;5051755;28;20021;-59
2023/06/22 09:01:07;;;;;;;15.32;8.20;;;26.10;99.90;;;;;;5050042;28;20009;-59
2023/06/22 09:03:36;;;;;;;20.73;8.90;;;26.10;99.90;;;;;;5050130;28;20033;-59
2023/06/22 09:06:01;;;;;;;26.92;9.15;;;26.10;99.90;;;;;;5052087;28;20433;-59
2023/06/22 09:08:27;;;;;;;96.93;12.95;;;26.20;99.90;;;;;;5051565;28;20101;-61
2023/06/22 09:10:52;;;;;;;23.70;8.75;;;26.20;99.90;;;;;;5051690;28;20044;-58
2023/06/22 09:13:18;;;;;;;16.23;8.05;;;26.30;99.90;;;;;;5051704;28;20151;-56
2023/06/22 09:15:44;;;;;;;10.90;7.22;;;26.40;99.90;;;;;;5050467;28;20028;-58
2023/06/22 09:18:13;;;;;;;15.25;7.30;;;26.30;99.90;;;;;;5050697;28;20013;-57
2023/06/22 09:20:39;;;;;;;20.23;8.20;;;26.40;99.90;;;;;;5051201;28;20013;-57
2023/06/22 09:23:04;;;;;;;14.38;7.78;;;26.30;99.90;;;;;;5051239;28;20036;-58
2023/06/22 09:25:30;;;;;;;19.15;8.38;;;26.40;99.90;;;;;;5051095;28;20020;-59
2023/06/22 09:27:56;;;;;;;12.18;8.15;;;26.30;99.90;;;;;;5051374;28;20025;-58
2023/06/22 09:30:22;;;;;;;14.02;7.68;;;26.20;99.90;;;;;;5047808;28;20159;-59
2023/06/22 09:32:48;;;;;;;10.48;7.82;;;26.30;99.90;;;;;;5051267;28;20037;-60
2023/06/22 09:35:13;;;;;;;12.15;8.45;;;26.50;99.90;;;;;;5051100;28;20031;-59
2023/06/22 09:37:40;;;;;;;11.40;8.10;;;26.60;99.90;;;;;;5051055;28;20052;-59
2023/06/22 09:40:12;;;;;;;13.35;7.95;;;26.90;99.90;;;;;;5051170;28;20024;-58
2023/06/22 09:42:38;;;;;;;9.40;7.45;;;27.10;99.90;;;;;;5050960;28;20062;-57
2023/06/22 09:45:04;;;;;;;8.50;6.50;;;27.30;99.90;;;;;;5048867;28;20021;-58
2023/06/22 09:47:30;;;;;;;11.85;7.78;;;27.40;99.90;;;;;;5050758;28;20513;-57
2023/06/22 09:49:55;;;;;;;11.85;7.07;;;27.60;99.90;;;;;;5051225;28;20036;-57
2023/06/22 09:52:21;;;;;;;11.30;7.60;;;27.70;99.90;;;;;;5051095;28;20057;-58
2023/06/22 09:54:47;;;;;;;10.77;7.85;;;27.70;99.90;;;;;;5050918;28;20021;-56
2023/06/22 09:57:13;;;;;;;13.80;7.57;;;27.30;99.90;;;;;;5051010;28;20025;-58
2023/06/22 09:59:41;;;;;;;13.27;8.40;;;27.40;99.90;;;;;;5045204;28;20021;-56
2023/06/22 10:02:07;;;;;;;185.70;17.55;;;27.20;99.90;;;;;;5038800;28;20063;-59
2023/06/22 10:04:34;;;;;;;9.45;8.00;;;26.90;99.90;;;;;;5050815;28;20060;-57
2023/06/22 10:07:00;;;;;;;11.60;7.43;;;26.50;99.90;;;;;;5051040;28;20370;-58
2023/06/22 10:09:25;;;;;;;15.23;8.40;;;26.20;99.90;;;;;;5050984;28;20023;-59
2023/06/22 10:11:51;;;;;;;11.20;7.63;;;25.90;99.90;;;;;;5051035;28;20035;-56
2023/06/22 10:14:16;;;;;;;9.57;7.57;;;25.70;99.90;;;;;;5050911;28;20102;-59
2023/06/22 10:16:42;;;;;;;10.27;7.32;;;25.70;99.90;;;;;;5049048;28;20025;-56
2023/06/22 10:19:08;;;;;;;11.18;8.43;;;25.70;99.90;;;;;;5051152;28;20028;-55
2023/06/22 10:21:34;;;;;;;9.77;7.70;;;25.70;99.90;;;;;;5051081;28;20364;-56
2023/06/22 10:24:05;;;;;;;12.02;8.95;;;25.60;99.90;;;;;;5050982;28;20021;-58
2023/06/22 10:26:35;;;;;;;12.70;9.18;;;25.50;99.90;;;;;;5050569;28;20045;-57
2023/06/22 10:29:02;;;;;;;13.27;8.65;;;25.30;99.90;;;;;;5050705;28;20024;-56
2023/06/22 10:31:28;;;;;;;16.45;10.07;;;25.00;99.90;;;;;;5048733;28;20037;-59
2023/06/22 10:33:54;;;;;;;14.15;9.48;;;24.60;99.90;;;;;;5043644;28;20108;-57
2023/06/22 10:36:20;;;;;;;14.50;11.05;;;24.50;99.90;;;;;;5050624;28;20529;-60
2023/06/22 10:38:46;;;;;;;20.10;10.32;;;24.20;99.90;;;;;;5050637;28;20021;-57
2023/06/22 10:41:12;;;;;;;17.40;11.68;;;24.20;99.90;;;;;;5050419;28;20104;-55
2023/06/22 10:43:38;;;;;;;18.27;12.40;;;24.20;99.90;;;;;;5050319;28;20059;-55
2023/06/22 10:46:03;;;;;;;14.90;10.48;;;23.80;99.90;;;;;;5048625;28;20036;-61
2023/06/22 10:48:29;;;;;;;16.60;11.88;;;23.90;99.90;;;;;;5048718;28;20667;-58
2023/06/22 10:50:54;;;;;;;14.95;10.50;;;23.90;99.90;;;;;;5050698;28;20047;-59
2023/06/22 10:53:21;;;;;;;20.67;12.88;;;23.90;99.90;;;;;;5050617;28;20032;-59
2023/06/22 10:55:47;;;;;;;19.27;12.02;;;23.80;99.90;;;;;;5052650;28;20021;-58
2023/06/22 10:58:12;;;;;;;29.95;13.90;;;23.70;99.90;;;;;;5054228;28;20028;-63
2023/06/22 11:00:38;;;;;;;33.40;14.70;;;23.70;99.90;;;;;;5054098;28;20021;-62
2023/06/22 11:03:03;;;;;;;23.48;13.68;;;23.50;99.90;;;;;;5050223;28;20031;-63
2023/06/22 11:05:29;;;;;;;24.73;15.95;;;23.30;99.90;;;;;;5054026;28;20360;-62
2023/06/22 11:07:54;;;;;;;26.17;15.45;;;23.00;99.90;;;;;;5054197;28;20531;-63
2023/06/22 11:10:20;;;;;;;21.38;14.15;;;22.90;99.90;;;;;;5054071;28;20483;-60
2023/06/22 11:12:46;;;;;;;27.23;16.00;;;22.80;99.90;;;;;;5053907;28;20024;-61
2023/06/22 11:15:11;;;;;;;26.45;16.58;;;22.80;99.90;;;;;;5053577;28;20057;-63
2023/06/22 11:17:37;;;;;;;29.42;16.15;;;22.70;99.90;;;;;;5051883;28;20533;-61
2023/06/22 11:20:09;;;;;;;30.35;18.05;;;22.70;99.90;;;;;;5050323;28;20467;-61
2023/06/22 11:22:35;;;;;;;32.42;17.20;;;22.80;99.90;;;;;;5056138;28;20090;-62
2023/06/22 11:25:01;;;;;;;25.60;18.30;;;22.80;99.90;;;;;;5056590;28;20092;-62
2023/06/22 11:27:26;;;;;;;27.60;17.52;;;22.80;99.90;;;;;;5055199;28;20036;-62
2023/06/22 11:29:52;;;;;;;30.42;18.27;;;22.80;99.90;;;;;;5054178;28;20068;-60
2023/06/22 11:32:18;;;;;;;32.38;18.58;;;22.90;99.90;;;;;;5050165;28;20044;-62
2023/06/22 11:34:44;;;;;;;30.25;20.17;;;22.80;99.90;;;;;;5053434;28;20659;-63
2023/06/22 11:37:09;;;;;;;30.92;20.50;;;22.90;99.90;;;;;;5053473;28;20441;-62
2023/06/22 11:39:35;;;;;;;32.33;20.48;;;22.90;99.90;;;;;;5053324;28;20405;-62
2023/06/22 11:42:00;;;;;;;27.65;19.35;;;22.90;99.90;;;;;;5053517;28;20045;-63
2023/06/22 11:44:26;;;;;;;34.33;19.98;;;22.90;99.90;;;;;;5053137;28;20475;-59
2023/06/22 11:46:52;;;;;;;29.90;21.48;;;22.80;99.90;;;;;;5051497;28;20025;-63
2023/06/22 11:49:17;;;;;;;49.80;24.83;;;22.70;99.90;;;;;;5053312;28;20368;-62
2023/06/22 11:51:43;;;;;;;43.97;27.25;;;22.80;99.90;;;;;;5053212;28;20036;-62
2023/06/22 11:54:08;;;;;;;48.00;27.98;;;23.30;99.90;;;;;;5052984;28;20083;-62
2023/06/22 11:56:34;;;;;;;36.35;25.10;;;23.50;99.90;;;;;;5052888;28;20320;-62
2023/06/22 11:58:59;;;;;;;38.10;24.48;;;23.60;99.90;;;;;;5052040;28;20024;-61
2023/06/22 12:01:25;;;;;;;32.72;22.33;;;23.40;99.90;;;;;;5050329;28;20045;-62
2023/06/22 12:03:50;;;;;;;30.45;21.27;;;23.40;99.90;;;;;;5052988;28;20431;-63
2023/06/22 12:06:16;;;;;;;31.70;19.58;;;23.50;99.90;;;;;;5050464;28;20524;-61
2023/06/22 12:08:41;;;;;;;29.67;20.63;;;23.70;99.90;;;;;;5052585;28;20021;-63
2023/06/22 12:11:07;;;;;;;26.27;20.20;;;23.70;99.90;;;;;;5052831;28;20495;-62
2023/06/22 12:13:33;;;;;;;30.90;21.15;;;23.80;99.90;;;;;;5052384;28;20032;-62
2023/06/22 12:15:58;;;;;;;25.77;19.05;;;23.70;99.90;;;;;;5050817;28;20158;-58
2023/06/22 12:18:24;;;;;;;31.25;21.15;;;23.60;99.90;;;;;;5052593;28;20092;-62
2023/06/22 12:20:49;;;;;;;36.33;21.98;;;23.60;99.90;;;;;;5052679;28;20027;-61
2023/06/22 12:23:15;;;;;;;28.98;20.80;;;23.70;99.90;;;;;;5052578;28;20021;-62
2023/06/22 12:25:41;;;;;;;27.88;19.55;;;23.70;99.90;;;;;;5042619;28;20027;-60
2023/06/22 12:28:06;;;;;;;26.08;18.42;;;23.70;99.90;;;;;;5052412;28;20045;-61
2023/06/22 12:30:34;;;;;;;26.25;18.92;;;23.80;99.90;;;;;;5052368;28;20024;-62
2023/06/22 12:33:00;;;;;;;28.90;18.58;;;24.00;99.90;;;;;;5050628;28;20084;-62
2023/06/22 12:35:26;;;;;;;30.13;20.33;;;24.20;99.90;;;;;;5050424;28;20073;-60